sensor_id;sensor_type;location;lat;lon;timestamp;pressure;altitude;pressure_sealevel;temperature;humidity
10618;BME280;5356;43.526;26.534;2023-05-17T00:00:29;98639.59;;;17.70;87.31
10618;BME280;5356;43.526;26.534;2023-05-17T00:02:55;98622.41;;;17.61;87.53
10618;BME280;5356;43.526;26.534;2023-05-17T00:05:20;98622.38;;;17.66;87.93
10618;BME280;5356;43.526;26.534;2023-05-17T00:07:46;98614.31;;;17.66;88.13
10618;BME280;5356;43.526;26.534;2023-05-17T00:10:12;98610.00;;;17.60;88.89
10618;BME280;5356;43.526;26.534;2023-05-17T00:12:38;98603.59;;;17.56;89.71
10618;BME280;5356;43.526;26.534;2023-05-17T00:15:04;98594.91;;;17.64;90.05
10618;BME280;5356;43.526;26.534;2023-05-17T00:17:29;98588.72;;;17.64;90.08
10618;BME280;5356;43.526;26.534;2023-05-17T00:19:55;98588.78;;;17.54;91.28
10618;BME280;5356;43.526;26.534;2023-05-17T00:22:20;98589.59;;;17.54;91.95
10618;BME280;5356;43.526;26.534;2023-05-17T00:24:45;98587.44;;;17.56;91.58
10618;BME280;5356;43.526;26.534;2023-05-17T00:27:11;98593.38;;;17.53;92.08
10618;BME280;5356;43.526;26.534;2023-05-17T00:29:36;98585.31;;;17.48;91.59
10618;BME280;5356;43.526;26.534;2023-05-17T00:32:02;98587.00;;;17.39;92.37
10618;BME280;5356;43.526;26.534;2023-05-17T00:34:27;98589.59;;;17.54;91.70
10618;BME280;5356;43.526;26.534;2023-05-17T00:36:53;98601.66;;;17.62;91.34
10618;BME280;5356;43.526;26.534;2023-05-17T00:39:18;98612.13;;;17.68;91.01
10618;BME280;5356;43.526;26.534;2023-05-17T00:41:44;98633.41;;;17.65;92.08
10618;BME280;5356;43.526;26.534;2023-05-17T00:44:09;98676.88;;;17.53;94.47
10618;BME280;5356;43.526;26.534;2023-05-17T00:46:35;98678.97;;;17.66;93.35
10618;BME280;5356;43.526;26.534;2023-05-17T00:49:00;98653.94;;;17.61;94.10
10618;BME280;5356;43.526;26.534;2023-05-17T00:51:26;98658.50;;;17.60;94.09
10618;BME280;5356;43.526;26.534;2023-05-17T00:53:53;98652.25;;;17.70;94.04
10618;BME280;5356;43.526;26.534;2023-05-17T00:56:18;98649.81;;;17.68;95.01
10618;BME280;5356;43.526;26.534;2023-05-17T00:58:44;98645.34;;;17.54;93.71
10618;BME280;5356;43.526;26.534;2023-05-17T01:01:10;98658.00;;;17.53;94.29
10618;BME280;5356;43.526;26.534;2023-05-17T01:03:35;98660.38;;;17.60;93.14
10618;BME280;5356;43.526;26.534;2023-05-17T01:06:01;98649.81;;;17.68;91.00
10618;BME280;5356;43.526;26.534;2023-05-17T01:08:26;98655.19;;;17.79;91.40
10618;BME280;5356;43.526;26.534;2023-05-17T01:16:33;98676.34;;;18.01;90.94
10618;BME280;5356;43.526;26.534;2023-05-17T01:24:29;98669.69;;;17.83;93.50
10618;BME280;5356;43.526;26.534;2023-05-17T01:26:56;98681.00;;;17.85;93.42
10618;BME280;5356;43.526;26.534;2023-05-17T01:29:25;98685.84;;;17.88;93.12
10618;BME280;5356;43.526;26.534;2023-05-17T01:31:53;98680.38;;;17.98;93.28
10618;BME280;5356;43.526;26.534;2023-05-17T01:34:29;98675.03;;;17.93;94.11
10618;BME280;5356;43.526;26.534;2023-05-17T01:36:54;98668.66;;;17.73;94.49
10618;BME280;5356;43.526;26.534;2023-05-17T01:39:21;98667.09;;;17.62;95.07
10618;BME280;5356;43.526;26.534;2023-05-17T01:42:12;98669.53;;;17.64;96.06
10618;BME280;5356;43.526;26.534;2023-05-17T01:44:42;98664.63;;;17.71;96.15
10618;BME280;5356;43.526;26.534;2023-05-17T01:50:16;98652.88;;;17.51;97.81
10618;BME280;5356;43.526;26.534;2023-05-17T01:53:06;98648.78;;;17.64;98.64
10618;BME280;5356;43.526;26.534;2023-05-17T01:55:42;98659.56;;;17.64;99.15
10618;BME280;5356;43.526;26.534;2023-05-17T01:58:10;98660.09;;;17.66;100.00
10618;BME280;5356;43.526;26.534;2023-05-17T02:00:38;98653.94;;;17.61;99.93
10618;BME280;5356;43.526;26.534;2023-05-17T02:03:04;98648.63;;;17.45;100.00
10618;BME280;5356;43.526;26.534;2023-05-17T02:05:30;98645.09;;;17.50;100.00
10618;BME280;5356;43.526;26.534;2023-05-17T02:07:55;98637.03;;;17.45;100.00
10618;BME280;5356;43.526;26.534;2023-05-17T02:10:21;98642.44;;;17.45;100.00
10618;BME280;5356;43.526;26.534;2023-05-17T02:12:46;98650.50;;;17.45;100.00
10618;BME280;5356;43.526;26.534;2023-05-17T02:15:12;98651.63;;;17.39;100.00
10618;BME280;5356;43.526;26.534;2023-05-17T02:17:38;98644.91;;;17.36;100.00
10618;BME280;5356;43.526;26.534;2023-05-17T02:20:08;98641.41;;;17.36;100.00
10618;BME280;5356;43.526;26.534;2023-05-17T02:22:35;98634.97;;;17.26;100.00
10618;BME280;5356;43.526;26.534;2023-05-17T02:25:01;98633.66;;;17.24;100.00
10618;BME280;5356;43.526;26.534;2023-05-17T02:27:27;98640.59;;;17.35;100.00
10618;BME280;5356;43.526;26.534;2023-05-17T02:29:52;98649.44;;;17.41;100.00
10618;BME280;5356;43.526;26.534;2023-05-17T02:32:18;98659.41;;;17.40;100.00
10618;BME280;5356;43.526;26.534;2023-05-17T02:34:43;98663.19;;;17.39;100.00
10618;BME280;5356;43.526;26.534;2023-05-17T02:37:08;98662.63;;;17.42;100.00
10618;BME280;5356;43.526;26.534;2023-05-17T02:39:34;98647.03;;;17.39;100.00
10618;BME280;5356;43.526;26.534;2023-05-17T02:41:59;98643.13;;;17.16;100.00
10618;BME280;5356;43.526;26.534;2023-05-17T02:44:25;98645.09;;;16.90;100.00
10618;BME280;5356;43.526;26.534;2023-05-17T02:46:50;98647.50;;;16.92;100.00
10618;BME280;5356;43.526;26.534;2023-05-17T02:49:16;98657.19;;;16.93;100.00
10618;BME280;5356;43.526;26.534;2023-05-17T02:51:41;98642.66;;;16.99;100.00
10618;BME280;5356;43.526;26.534;2023-05-17T02:54:07;98631.84;;;17.04;100.00
10618;BME280;5356;43.526;26.534;2023-05-17T02:56:32;98644.22;;;17.10;100.00
10618;BME280;5356;43.526;26.534;2023-05-17T02:58:58;98637.19;;;17.14;100.00
10618;BME280;5356;43.526;26.534;2023-05-17T03:01:26;98625.34;;;17.15;100.00
10618;BME280;5356;43.526;26.534;2023-05-17T03:03:51;98645.53;;;17.18;100.00
10618;BME280;5356;43.526;26.534;2023-05-17T03:06:17;98648.47;;;17.21;100.00
10618;BME280;5356;43.526;26.534;2023-05-17T03:08:42;98636.66;;;17.12;100.00
10618;BME280;5356;43.526;26.534;2023-05-17T03:11:08;98629.44;;;17.08;100.00
10618;BME280;5356;43.526;26.534;2023-05-17T03:13:33;98628.66;;;17.02;100.00
10618;BME280;5356;43.526;26.534;2023-05-17T03:15:58;98640.00;;;16.89;100.00
10618;BME280;5356;43.526;26.534;2023-05-17T03:18:24;98641.09;;;16.77;100.00
10618;BME280;5356;43.526;26.534;2023-05-17T03:20:51;98661.53;;;16.73;100.00
10618;BME280;5356;43.526;26.534;2023-05-17T03:23:17;98637.59;;;16.72;100.00
10618;BME280;5356;43.526;26.534;2023-05-17T03:25:43;98634.13;;;16.56;100.00
10618;BME280;5356;43.526;26.534;2023-05-17T03:28:08;98641.66;;;16.59;100.00
10618;BME280;5356;43.526;26.534;2023-05-17T03:30:33;98626.56;;;16.68;100.00
10618;BME280;5356;43.526;26.534;2023-05-17T03:32:59;98617.16;;;16.66;100.00
10618;BME280;5356;43.526;26.534;2023-05-17T03:35:25;98642.97;;;16.67;100.00
10618;BME280;5356;43.526;26.534;2023-05-17T03:37:50;98638.94;;;16.74;100.00
10618;BME280;5356;43.526;26.534;2023-05-17T03:40:15;98648.09;;;16.73;100.00
10618;BME280;5356;43.526;26.534;2023-05-17T03:42:41;98651.31;;;16.70;100.00
10618;BME280;5356;43.526;26.534;2023-05-17T03:45:07;98649.16;;;16.72;100.00
10618;BME280;5356;43.526;26.534;2023-05-17T03:47:33;98654.28;;;16.79;100.00
10618;BME280;5356;43.526;26.534;2023-05-17T03:49:58;98656.66;;;16.75;100.00
10618;BME280;5356;43.526;26.534;2023-05-17T03:52:24;98654.81;;;16.76;100.00
10618;BME280;5356;43.526;26.534;2023-05-17T03:54:49;98649.41;;;16.81;100.00
10618;BME280;5356;43.526;26.534;2023-05-17T03:57:15;98657.78;;;16.85;100.00
10618;BME280;5356;43.526;26.534;2023-05-17T03:59:41;98659.38;;;16.91;100.00
10618;BME280;5356;43.526;26.534;2023-05-17T04:02:06;98655.03;;;16.90;100.00
10618;BME280;5356;43.526;26.534;2023-05-17T04:04:32;98667.19;;;16.87;100.00
10618;BME280;5356;43.526;26.534;2023-05-17T04:06:57;98667.94;;;16.93;100.00
10618;BME280;5356;43.526;26.534;2023-05-17T04:09:22;98663.66;;;16.92;100.00
10618;BME280;5356;43.526;26.534;2023-05-17T04:11:48;98671.19;;;16.90;100.00
10618;BME280;5356;43.526;26.534;2023-05-17T04:14:14;98663.09;;;16.95;100.00
10618;BME280;5356;43.526;26.534;2023-05-17T04:16:39;98646.47;;;16.77;100.00
10618;BME280;5356;43.526;26.534;2023-05-17T04:19:05;98661.56;;;16.53;100.00
10618;BME280;5356;43.526;26.534;2023-05-17T04:21:30;98666.13;;;16.57;100.00
10618;BME280;5356;43.526;26.534;2023-05-17T04:23:56;98676.06;;;16.77;100.00
10618;BME280;5356;43.526;26.534;2023-05-17T04:26:22;98671.97;;;17.00;100.00
10618;BME280;5356;43.526;26.534;2023-05-17T04:28:47;98668.06;;;17.32;100.00
10618;BME280;5356;43.526;26.534;2023-05-17T04:31:14;98675.56;;;17.40;100.00
10618;BME280;5356;43.526;26.534;2023-05-17T04:33:41;98670.50;;;17.34;100.00
10618;BME280;5356;43.526;26.534;2023-05-17T04:36:07;98673.00;;;17.15;100.00
10618;BME280;5356;43.526;26.534;2023-05-17T04:38:32;98668.72;;;17.03;100.00
10618;BME280;5356;43.526;26.534;2023-05-17T04:41:02;98666.91;;;16.89;100.00
10618;BME280;5356;43.526;26.534;2023-05-17T04:43:28;98670.63;;;16.93;100.00
10618;BME280;5356;43.526;26.534;2023-05-17T04:45:55;98668.47;;;17.00;100.00
10618;BME280;5356;43.526;26.534;2023-05-17T04:48:22;98666.59;;;16.95;100.00
10618;BME280;5356;43.526;26.534;2023-05-17T04:50:47;98660.69;;;16.93;100.00
10618;BME280;5356;43.526;26.534;2023-05-17T04:53:13;98673.06;;;16.94;100.00
10618;BME280;5356;43.526;26.534;2023-05-17T04:55:39;98665.25;;;16.93;100.00
10618;BME280;5356;43.526;26.534;2023-05-17T04:58:05;98680.59;;;16.92;100.00
10618;BME280;5356;43.526;26.534;2023-05-17T05:00:31;98690.56;;;16.92;100.00
10618;BME280;5356;43.526;26.534;2023-05-17T05:02:56;98683.03;;;16.94;100.00
10618;BME280;5356;43.526;26.534;2023-05-17T05:05:22;98677.91;;;16.92;100.00
10618;BME280;5356;43.526;26.534;2023-05-17T05:07:49;98693.53;;;16.90;100.00
10618;BME280;5356;43.526;26.534;2023-05-17T05:10:14;98693.25;;;16.87;100.00
10618;BME280;5356;43.526;26.534;2023-05-17T05:12:40;98690.06;;;16.85;100.00
10618;BME280;5356;43.526;26.534;2023-05-17T05:15:06;98690.56;;;16.87;100.00
10618;BME280;5356;43.526;26.534;2023-05-17T05:17:32;98693.81;;;16.83;100.00
10618;BME280;5356;43.526;26.534;2023-05-17T05:19:57;98697.03;;;16.96;100.00
10618;BME280;5356;43.526;26.534;2023-05-17T05:22:23;98698.06;;;17.00;100.00
10618;BME280;5356;43.526;26.534;2023-05-17T05:24:49;98697.78;;;17.06;100.00
10618;BME280;5356;43.526;26.534;2023-05-17T05:27:14;98705.06;;;17.01;100.00
10618;BME280;5356;43.526;26.534;2023-05-17T05:29:41;98711.78;;;17.09;100.00
10618;BME280;5356;43.526;26.534;2023-05-17T05:32:07;98710.72;;;17.04;100.00
10618;BME280;5356;43.526;26.534;2023-05-17T05:34:32;98716.06;;;17.10;100.00
10618;BME280;5356;43.526;26.534;2023-05-17T05:36:58;98724.66;;;17.17;100.00
10618;BME280;5356;43.526;26.534;2023-05-17T05:39:24;98727.59;;;17.25;100.00
10618;BME280;5356;43.526;26.534;2023-05-17T05:41:49;98730.84;;;17.27;100.00
10618;BME280;5356;43.526;26.534;2023-05-17T05:44:16;98727.06;;;17.23;100.00
10618;BME280;5356;43.526;26.534;2023-05-17T05:46:41;98736.25;;;17.12;100.00
10618;BME280;5356;43.526;26.534;2023-05-17T05:49:07;98741.69;;;16.97;100.00
10618;BME280;5356;43.526;26.534;2023-05-17T05:51:33;98744.91;;;16.99;100.00
10618;BME280;5356;43.526;26.534;2023-05-17T05:53:59;98755.63;;;17.04;100.00
10618;BME280;5356;43.526;26.534;2023-05-17T05:56:24;98753.50;;;17.01;100.00
10618;BME280;5356;43.526;26.534;2023-05-17T05:58:52;98748.41;;;16.94;100.00
10618;BME280;5356;43.526;26.534;2023-05-17T06:01:17;98743.81;;;17.00;100.00
10618;BME280;5356;43.526;26.534;2023-05-17T06:03:43;98743.81;;;16.95;100.00
10618;BME280;5356;43.526;26.534;2023-05-17T06:06:08;98737.38;;;16.91;100.00
10618;BME280;5356;43.526;26.534;2023-05-17T06:08:34;98733.66;;;16.76;100.00
10618;BME280;5356;43.526;26.534;2023-05-17T06:11:00;98735.00;;;16.79;100.00
10618;BME280;5356;43.526;26.534;2023-05-17T06:13:25;98725.28;;;16.93;100.00
10618;BME280;5356;43.526;26.534;2023-05-17T06:15:51;98722.84;;;16.97;100.00
10618;BME280;5356;43.526;26.534;2023-05-17T06:18:16;98720.13;;;17.07;100.00
10618;BME280;5356;43.526;26.534;2023-05-17T06:20:41;98728.44;;;17.16;100.00
10618;BME280;5356;43.526;26.534;2023-05-17T06:23:07;98731.66;;;17.23;100.00
10618;BME280;5356;43.526;26.534;2023-05-17T06:25:32;98732.19;;;17.25;100.00
10618;BME280;5356;43.526;26.534;2023-05-17T06:27:58;98738.06;;;17.32;100.00
10618;BME280;5356;43.526;26.534;2023-05-17T06:30:26;98737.78;;;17.44;100.00
10618;BME280;5356;43.526;26.534;2023-05-17T06:32:52;98732.63;;;17.53;100.00
10618;BME280;5356;43.526;26.534;2023-05-17T06:35:18;98730.16;;;17.56;100.00
10618;BME280;5356;43.526;26.534;2023-05-17T06:37:43;98735.53;;;17.61;100.00
10618;BME280;5356;43.526;26.534;2023-05-17T06:40:09;98739.00;;;17.67;100.00
10618;BME280;5356;43.526;26.534;2023-05-17T06:42:42;98745.50;;;17.61;100.00
10618;BME280;5356;43.526;26.534;2023-05-17T06:45:12;98740.66;;;17.58;100.00
10618;BME280;5356;43.526;26.534;2023-05-17T06:47:41;98738.22;;;17.61;100.00
10618;BME280;5356;43.526;26.534;2023-05-17T06:50:07;98735.56;;;17.51;100.00
10618;BME280;5356;43.526;26.534;2023-05-17T06:52:34;98729.41;;;17.45;100.00
10618;BME280;5356;43.526;26.534;2023-05-17T06:54:59;98733.44;;;17.43;100.00
10618;BME280;5356;43.526;26.534;2023-05-17T06:57:25;98729.16;;;17.42;100.00
10618;BME280;5356;43.526;26.534;2023-05-17T06:59:50;98735.34;;;17.47;100.00
10618;BME280;5356;43.526;26.534;2023-05-17T07:02:16;98741.25;;;17.49;100.00
10618;BME280;5356;43.526;26.534;2023-05-17T07:04:42;98740.97;;;17.51;100.00
10618;BME280;5356;43.526;26.534;2023-05-17T07:07:10;98745.31;;;17.42;100.00
10618;BME280;5356;43.526;26.534;2023-05-17T07:09:46;98741.53;;;17.43;100.00
10618;BME280;5356;43.526;26.534;2023-05-17T07:12:25;98750.19;;;17.35;100.00
10618;BME280;5356;43.526;26.534;2023-05-17T07:14:50;98744.28;;;17.27;100.00
10618;BME280;5356;43.526;26.534;2023-05-17T07:17:25;98742.41;;;17.23;100.00
10618;BME280;5356;43.526;26.534;2023-05-17T07:20:00;98734.09;;;17.19;100.00
10618;BME280;5356;43.526;26.534;2023-05-17T07:22:31;98728.94;;;17.23;100.00
10618;BME280;5356;43.526;26.534;2023-05-17T07:25:04;98718.19;;;17.23;100.00
10618;BME280;5356;43.526;26.534;2023-05-17T07:27:30;98723.31;;;17.24;100.00
10618;BME280;5356;43.526;26.534;2023-05-17T07:29:56;98716.28;;;17.28;100.00
10618;BME280;5356;43.526;26.534;2023-05-17T07:32:42;98731.91;;;17.26;100.00
10618;BME280;5356;43.526;26.534;2023-05-17T07:38:12;98723.00;;;17.36;100.00
10618;BME280;5356;43.526;26.534;2023-05-17T07:40:55;98718.13;;;17.38;100.00
10618;BME280;5356;43.526;26.534;2023-05-17T07:43:21;98715.19;;;17.35;100.00
10618;BME280;5356;43.526;26.534;2023-05-17T07:45:47;98713.81;;;17.37;100.00
10618;BME280;5356;43.526;26.534;2023-05-17T07:48:20;98708.69;;;17.41;100.00
10618;BME280;5356;43.526;26.534;2023-05-17T07:50:46;98719.66;;;17.55;100.00
10618;BME280;5356;43.526;26.534;2023-05-17T07:53:13;98709.41;;;17.62;100.00
10618;BME280;5356;43.526;26.534;2023-05-17T07:55:44;98718.53;;;17.66;100.00
10618;BME280;5356;43.526;26.534;2023-05-17T07:58:15;98718.75;;;17.74;100.00
10618;BME280;5356;43.526;26.534;2023-05-17T08:00:51;98713.38;;;17.80;100.00
10618;BME280;5356;43.526;26.534;2023-05-17T08:03:22;98714.38;;;17.89;100.00
10618;BME280;5356;43.526;26.534;2023-05-17T08:09:30;98716.00;;;17.90;100.00
10618;BME280;5356;43.526;26.534;2023-05-17T08:18:30;98719.72;;;17.99;100.00
10618;BME280;5356;43.526;26.534;2023-05-17T08:20:55;98721.81;;;18.07;100.00
10618;BME280;5356;43.526;26.534;2023-05-17T08:23:21;98727.75;;;18.09;100.00
10618;BME280;5356;43.526;26.534;2023-05-17T08:25:47;98725.81;;;18.15;100.00
10618;BME280;5356;43.526;26.534;2023-05-17T08:28:12;98720.94;;;18.17;100.00
10618;BME280;5356;43.526;26.534;2023-05-17T08:30:38;98724.72;;;18.16;100.00
10618;BME280;5356;43.526;26.534;2023-05-17T08:33:03;98729.84;;;18.17;100.00
10618;BME280;5356;43.526;26.534;2023-05-17T08:35:29;98734.69;;;18.21;100.00
10618;BME280;5356;43.526;26.534;2023-05-17T08:37:55;98735.50;;;18.16;100.00
10618;BME280;5356;43.526;26.534;2023-05-17T08:40:21;98741.47;;;18.13;100.00
10618;BME280;5356;43.526;26.534;2023-05-17T08:42:47;98730.50;;;17.99;100.00
10618;BME280;5356;43.526;26.534;2023-05-17T08:45:14;98733.72;;;18.01;100.00
10618;BME280;5356;43.526;26.534;2023-05-17T08:47:41;98730.19;;;18.06;100.00
10618;BME280;5356;43.526;26.534;2023-05-17T08:50:08;98742.88;;;18.00;100.00
10618;BME280;5356;43.526;26.534;2023-05-17T08:52:34;98740.81;;;17.92;100.00
10618;BME280;5356;43.526;26.534;2023-05-17T08:55:00;98735.69;;;17.85;100.00
10618;BME280;5356;43.526;26.534;2023-05-17T08:57:30;98735.91;;;17.94;100.00
10618;BME280;5356;43.526;26.534;2023-05-17T08:59:58;98738.31;;;18.01;100.00
10618;BME280;5356;43.526;26.534;2023-05-17T09:02:30;98734.25;;;18.03;100.00
10618;BME280;5356;43.526;26.534;2023-05-17T09:04:57;98740.16;;;18.05;100.00
10618;BME280;5356;43.526;26.534;2023-05-17T09:07:24;98738.81;;;18.03;100.00
10618;BME280;5356;43.526;26.534;2023-05-17T09:09:50;98738.47;;;18.14;100.00
10618;BME280;5356;43.526;26.534;2023-05-17T09:12:20;98735.25;;;18.17;100.00
10618;BME280;5356;43.526;26.534;2023-05-17T09:14:46;98731.16;;;18.20;100.00
10618;BME280;5356;43.526;26.534;2023-05-17T09:17:19;98741.09;;;18.25;100.00
10618;BME280;5356;43.526;26.534;2023-05-17T09:19:47;98732.47;;;18.28;100.00
10618;BME280;5356;43.526;26.534;2023-05-17T09:22:13;98730.91;;;18.16;100.00
10618;BME280;5356;43.526;26.534;2023-05-17T09:24:40;98728.44;;;18.25;100.00
10618;BME280;5356;43.526;26.534;2023-05-17T09:27:06;98746.47;;;18.30;100.00
10618;BME280;5356;43.526;26.534;2023-05-17T09:29:33;98741.44;;;18.52;100.00
10618;BME280;5356;43.526;26.534;2023-05-17T09:32:16;98736.97;;;18.72;100.00
10618;BME280;5356;43.526;26.534;2023-05-17T09:34:44;98746.13;;;18.71;100.00
10618;BME280;5356;43.526;26.534;2023-05-17T09:37:17;98741.41;;;18.57;100.00
10618;BME280;5356;43.526;26.534;2023-05-17T09:39:46;98745.47;;;18.55;100.00
10618;BME280;5356;43.526;26.534;2023-05-17T09:42:13;98743.03;;;18.53;100.00
10618;BME280;5356;43.526;26.534;2023-05-17T09:44:53;98748.75;;;18.52;100.00
10618;BME280;5356;43.526;26.534;2023-05-17T09:47:26;98749.53;;;18.52;100.00
10618;BME280;5356;43.526;26.534;2023-05-17T09:49:57;98754.41;;;18.50;100.00
10618;BME280;5356;43.526;26.534;2023-05-17T09:52:25;98755.81;;;18.43;100.00
10618;BME280;5356;43.526;26.534;2023-05-17T09:54:56;98752.50;;;18.51;100.00
10618;BME280;5356;43.526;26.534;2023-05-17T09:57:24;98758.47;;;18.48;100.00
10618;BME280;5356;43.526;26.534;2023-05-17T09:59:50;98748.97;;;18.55;100.00
10618;BME280;5356;43.526;26.534;2023-05-17T10:02:26;98745.97;;;18.57;100.00
10618;BME280;5356;43.526;26.534;2023-05-17T10:04:55;98749.97;;;18.65;100.00
10618;BME280;5356;43.526;26.534;2023-05-17T10:07:23;98748.38;;;18.63;100.00
10618;BME280;5356;43.526;26.534;2023-05-17T10:09:50;98736.00;;;18.57;100.00
10618;BME280;5356;43.526;26.534;2023-05-17T10:12:17;98746.88;;;18.47;100.00
10618;BME280;5356;43.526;26.534;2023-05-17T10:14:44;98738.59;;;18.38;100.00
10618;BME280;5356;43.526;26.534;2023-05-17T10:17:10;98740.44;;;18.43;100.00
10618;BME280;5356;43.526;26.534;2023-05-17T10:19:37;98742.03;;;18.44;100.00
10618;BME280;5356;43.526;26.534;2023-05-17T10:22:05;98738.81;;;18.42;100.00
10618;BME280;5356;43.526;26.534;2023-05-17T10:24:30;98740.13;;;18.50;100.00
10618;BME280;5356;43.526;26.534;2023-05-17T10:26:56;98744.13;;;18.52;100.00
10618;BME280;5356;43.526;26.534;2023-05-17T10:29:23;98744.59;;;18.59;100.00
10618;BME280;5356;43.526;26.534;2023-05-17T10:31:49;98745.63;;;18.69;100.00
10618;BME280;5356;43.526;26.534;2023-05-17T10:34:19;98743.00;;;18.58;100.00
10618;BME280;5356;43.526;26.534;2023-05-17T10:36:45;98738.41;;;18.59;100.00
10618;BME280;5356;43.526;26.534;2023-05-17T10:39:11;98726.78;;;18.63;100.00
10618;BME280;5356;43.526;26.534;2023-05-17T10:41:42;98727.63;;;18.59;100.00
10618;BME280;5356;43.526;26.534;2023-05-17T10:44:11;98720.28;;;18.65;100.00
10618;BME280;5356;43.526;26.534;2023-05-17T10:46:38;98725.09;;;18.68;100.00
10618;BME280;5356;43.526;26.534;2023-05-17T10:49:04;98735.06;;;18.72;100.00
10618;BME280;5356;43.526;26.534;2023-05-17T10:51:31;98741.81;;;18.70;100.00
10618;BME280;5356;43.526;26.534;2023-05-17T10:54:14;98736.97;;;18.72;100.00
10618;BME280;5356;43.526;26.534;2023-05-17T10:56:47;98741.00;;;18.74;100.00
10618;BME280;5356;43.526;26.534;2023-05-17T11:01:58;98743.66;;;18.79;100.00
10618;BME280;5356;43.526;26.534;2023-05-17T11:12:37;98726.00;;;18.92;100.00
10618;BME280;5356;43.526;26.534;2023-05-17T11:15:11;98727.66;;;18.88;100.00
10618;BME280;5356;43.526;26.534;2023-05-17T11:25:12;98719.09;;;18.81;100.00
10618;BME280;5356;43.526;26.534;2023-05-17T11:27:50;98711.56;;;18.73;100.00
10618;BME280;5356;43.526;26.534;2023-05-17T11:30:28;98704.31;;;18.68;100.00
10618;BME280;5356;43.526;26.534;2023-05-17T11:33:04;98700.31;;;18.66;100.00
10618;BME280;5356;43.526;26.534;2023-05-17T11:35:37;98691.47;;;18.60;100.00
10618;BME280;5356;43.526;26.534;2023-05-17T11:38:18;98688.44;;;18.67;100.00
10618;BME280;5356;43.526;26.534;2023-05-17T11:40:45;98681.06;;;18.77;100.00
10618;BME280;5356;43.526;26.534;2023-05-17T11:45:42;98686.53;;;18.96;100.00
10618;BME280;5356;43.526;26.534;2023-05-17T11:48:10;98693.78;;;19.01;100.00
10618;BME280;5356;43.526;26.534;2023-05-17T11:50:36;98682.69;;;19.02;100.00
10618;BME280;5356;43.526;26.534;2023-05-17T11:53:04;98675.28;;;18.89;100.00
10618;BME280;5356;43.526;26.534;2023-05-17T11:55:41;98664.47;;;18.89;100.00
10618;BME280;5356;43.526;26.534;2023-05-17T11:58:08;98670.84;;;18.98;100.00
10618;BME280;5356;43.526;26.534;2023-05-17T12:00:36;98666.38;;;19.13;100.00
10618;BME280;5356;43.526;26.534;2023-05-17T12:08:53;98666.63;;;19.35;100.00
10618;BME280;5356;43.526;26.534;2023-05-17T12:11:35;98659.72;;;19.48;100.00
10618;BME280;5356;43.526;26.534;2023-05-17T12:14:16;98666.00;;;19.62;100.00
10618;BME280;5356;43.526;26.534;2023-05-17T12:16:52;98650.03;;;19.66;100.00
10618;BME280;5356;43.526;26.534;2023-05-17T12:19:19;98645.78;;;19.79;100.00
10618;BME280;5356;43.526;26.534;2023-05-17T12:21:51;98635.94;;;19.88;100.00
10618;BME280;5356;43.526;26.534;2023-05-17T12:24:39;98641.47;;;19.96;100.00
10618;BME280;5356;43.526;26.534;2023-05-17T12:27:08;98642.47;;;20.01;100.00
10618;BME280;5356;43.526;26.534;2023-05-17T12:29:36;98640.34;;;19.98;100.00
10618;BME280;5356;43.526;26.534;2023-05-17T12:32:09;98642.53;;;19.95;100.00
10618;BME280;5356;43.526;26.534;2023-05-17T12:34:35;98640.44;;;19.92;100.00
10618;BME280;5356;43.526;26.534;2023-05-17T12:37:01;98632.31;;;19.92;100.00
10618;BME280;5356;43.526;26.534;2023-05-17T12:39:34;98635.03;;;19.92;100.00
10618;BME280;5356;43.526;26.534;2023-05-17T12:42:06;98638.97;;;19.81;100.00
10618;BME280;5356;43.526;26.534;2023-05-17T12:44:40;98648.78;;;19.77;100.00
10618;BME280;5356;43.526;26.534;2023-05-17T12:50:01;98641.34;;;19.69;100.00
10618;BME280;5356;43.526;26.534;2023-05-17T12:52:35;98643.28;;;19.63;100.00
10618;BME280;5356;43.526;26.534;2023-05-17T12:55:14;98638.13;;;19.67;100.00
10618;BME280;5356;43.526;26.534;2023-05-17T12:57:52;98634.66;;;19.61;100.00
10618;BME280;5356;43.526;26.534;2023-05-17T13:00:33;98634.44;;;19.58;100.00
10618;BME280;5356;43.526;26.534;2023-05-17T13:03:12;98630.63;;;19.59;100.00
10618;BME280;5356;43.526;26.534;2023-05-17T13:05:40;98631.94;;;19.61;100.00
10618;BME280;5356;43.526;26.534;2023-05-17T13:08:35;98629.84;;;19.58;100.00
10618;BME280;5356;43.526;26.534;2023-05-17T13:11:12;98629.03;;;19.58;100.00
10618;BME280;5356;43.526;26.534;2023-05-17T13:14:03;98625.75;;;19.61;100.00
10618;BME280;5356;43.526;26.534;2023-05-17T13:16:29;98621.91;;;19.67;100.00
10618;BME280;5356;43.526;26.534;2023-05-17T13:18:54;98619.94;;;19.72;100.00
10618;BME280;5356;43.526;26.534;2023-05-17T13:21:20;98622.56;;;19.78;100.00
10618;BME280;5356;43.526;26.534;2023-05-17T13:23:47;98621.69;;;19.82;100.00
10618;BME280;5356;43.526;26.534;2023-05-17T13:26:17;98616.28;;;19.82;100.00
10618;BME280;5356;43.526;26.534;2023-05-17T13:28:43;98623.28;;;19.83;100.00
10618;BME280;5356;43.526;26.534;2023-05-17T13:31:08;98619.78;;;19.83;100.00
10618;BME280;5356;43.526;26.534;2023-05-17T13:33:34;98619.84;;;19.78;100.00
10618;BME280;5356;43.526;26.534;2023-05-17T13:35:59;98616.28;;;19.82;100.00
10618;BME280;5356;43.526;26.534;2023-05-17T13:38:25;98621.59;;;19.87;100.00
10618;BME280;5356;43.526;26.534;2023-05-17T13:40:50;98629.78;;;19.82;100.00
10618;BME280;5356;43.526;26.534;2023-05-17T13:43:16;98617.22;;;19.72;100.00
10618;BME280;5356;43.526;26.534;2023-05-17T13:45:42;98614.53;;;19.72;100.00
10618;BME280;5356;43.526;26.534;2023-05-17T13:48:07;98612.53;;;19.78;100.00
10618;BME280;5356;43.526;26.534;2023-05-17T13:50:32;98622.47;;;19.83;100.00